Etusivu
METAR-TAF:

METAR-TAF

Lentoasemat :

Air Force Base Hoedspruit - Eastgate Airport

Hoedspruit, Etelä-Afrikka

Leveyspiiri: 24-21-17S, Pituuspiiri: 31-03-01E, korkeus merenpinnasta: 531 m

Tämänhetkinen sää

Tämä raportti tehtiin 1 tunti ja 9 minuuttia sitten, kello 16.00 UTC
Tuuli 8 kn etelästä
Lämpötila 18°C
Kosteus 68%
Ilmanpaine 1024 hPa

METAR: FAHS 051600Z AUTO 18008KT //// // ////// 18/12 Q1024

Aika: 19:09 (17:09 UTC)

Sääennuste

Tämä raportti tehtiin 4 tuntia ja 54 minuuttia sitten, kello 12.15 UTC
Ennuste voimassa 05. päivästä klo 10 UTC - 05. päivään klo 18 UTC
Tuuli 12 kn etelästä
Näkyvyys 10 km tai enemmän
Hajanaisia pilviä 2500 ft:n korkeudessa
Pilvistä 4000 ft:n korkeudessa

TAF: FAHS 051215Z 0510/0518 18012KT 9999 SCT025 OVC040 TX20/0512Z TN16/0518Z

Säähavainnot ja -ennusteet yli 4000 lentoasemalta (METAR- ja TAF-raportit).

Käytössä olevat sääasemat on merkitty karttaan keltaisilla ja punaisilla pisteillä.

Aseta hiiri pisteen päälle nähdäksesi sääaseman nimen.

Klikkaa sitten nähdäksesi säähavainnot ja -ennusteet.

Kartan vaihtaminen: klikkaa mustalla rastilla varustettuja vihreitä pisteitä, niin voit zoomata sisään; viivalla varustettua vihreää pistettä, niin voit zoomata ulos tai vihreitä nuolia, niin pääset viereisille kartoille.


METAR-TAF: